sensor_id;sensor_type;location;lat;lon;timestamp;pressure;altitude;pressure_sealevel;temperature;humidity
6032;BME280;3044;43.232;27.972;2022-10-17T00:00:52;45136.66;;;-143.84;50.08
6032;BME280;3044;43.232;27.972;2022-10-17T00:03:19;45132.84;;;-143.84;50.16
6032;BME280;3044;43.232;27.972;2022-10-17T00:05:48;45129.03;;;-143.84;50.35
6032;BME280;3044;43.232;27.972;2022-10-17T00:08:17;45138.56;;;-143.84;50.23
6032;BME280;3044;43.232;27.972;2022-10-17T00:10:44;45153.81;;;-143.84;50.48
6032;BME280;3044;43.232;27.972;2022-10-17T00:13:12;45113.81;;;-143.84;50.90
6032;BME280;3044;43.232;27.972;2022-10-17T00:15:42;45134.75;;;-143.84;50.75
6032;BME280;3044;43.232;27.972;2022-10-17T00:18:09;45121.44;;;-143.84;50.48
6032;BME280;3044;43.232;27.972;2022-10-17T00:20:37;45138.56;;;-143.84;50.88
6032;BME280;3044;43.232;27.972;2022-10-17T00:23:05;45136.66;;;-143.84;51.55
6032;BME280;3044;43.232;27.972;2022-10-17T00:25:32;45121.44;;;-143.84;51.72
6032;BME280;3044;43.232;27.972;2022-10-17T00:28:00;45110.00;;;-143.84;52.35
6032;BME280;3044;43.232;27.972;2022-10-17T00:30:27;45129.03;;;-143.84;52.38
6032;BME280;3044;43.232;27.972;2022-10-17T00:32:54;45121.44;;;-143.84;52.64
6032;BME280;3044;43.232;27.972;2022-10-17T00:35:21;45132.84;;;-143.84;52.74
6032;BME280;3044;43.232;27.972;2022-10-17T00:37:48;45134.75;;;-143.84;52.61
6032;BME280;3044;43.232;27.972;2022-10-17T00:40:17;45144.28;;;-143.84;52.53
6032;BME280;3044;43.232;27.972;2022-10-17T00:42:44;45129.03;;;-143.84;52.30
6032;BME280;3044;43.232;27.972;2022-10-17T00:45:17;45136.66;;;-143.84;52.12
6032;BME280;3044;43.232;27.972;2022-10-17T00:47:48;45123.34;;;-143.84;52.25
6032;BME280;3044;43.232;27.972;2022-10-17T00:50:17;45108.09;;;-143.84;51.39
6032;BME280;3044;43.232;27.972;2022-10-17T00:52:45;45115.72;;;-143.84;51.21
6032;BME280;3044;43.232;27.972;2022-10-17T00:55:17;45106.19;;;-143.84;51.17
6032;BME280;3044;43.232;27.972;2022-10-17T00:57:46;45111.91;;;-143.84;50.89
6032;BME280;3044;43.232;27.972;2022-10-17T01:00:15;45129.03;;;-143.84;51.04
6032;BME280;3044;43.232;27.972;2022-10-17T01:02:43;45140.47;;;-143.84;50.99
6032;BME280;3044;43.232;27.972;2022-10-17T01:05:11;45129.03;;;-143.84;51.27
6032;BME280;3044;43.232;27.972;2022-10-17T01:07:40;45125.22;;;-143.84;51.39
6032;BME280;3044;43.232;27.972;2022-10-17T01:10:08;45119.53;;;-143.84;51.80
6032;BME280;3044;43.232;27.972;2022-10-17T01:12:47;45106.19;;;-143.84;51.77
6032;BME280;3044;43.232;27.972;2022-10-17T01:15:24;45092.88;;;-143.84;51.96
6032;BME280;3044;43.232;27.972;2022-10-17T01:18:05;45134.75;;;-143.84;52.01
6032;BME280;3044;43.232;27.972;2022-10-17T01:20:59;45100.47;;;-143.84;52.32
6032;BME280;3044;43.232;27.972;2022-10-17T01:26:48;45127.13;;;-143.84;51.96
6032;BME280;3044;43.232;27.972;2022-10-17T01:29:33;45123.34;;;-143.84;51.83
6032;BME280;3044;43.232;27.972;2022-10-17T01:32:07;45144.28;;;-143.84;51.53
6032;BME280;3044;43.232;27.972;2022-10-17T01:34:40;45117.63;;;-143.84;51.77
6032;BME280;3044;43.232;27.972;2022-10-17T01:37:17;45129.03;;;-143.84;51.37
6032;BME280;3044;43.232;27.972;2022-10-17T01:39:49;45125.22;;;-143.84;51.05
6032;BME280;3044;43.232;27.972;2022-10-17T01:42:22;45144.28;;;-143.84;50.83
6032;BME280;3044;43.232;27.972;2022-10-17T01:44:56;45132.84;;;-143.84;50.56
6032;BME280;3044;43.232;27.972;2022-10-17T01:47:28;45132.84;;;-143.84;50.34
6032;BME280;3044;43.232;27.972;2022-10-17T01:49:58;45127.13;;;-143.84;50.42
6032;BME280;3044;43.232;27.972;2022-10-17T01:52:32;45127.13;;;-143.84;50.62
6032;BME280;3044;43.232;27.972;2022-10-17T01:55:06;45111.91;;;-143.84;50.63
6032;BME280;3044;43.232;27.972;2022-10-17T01:57:37;45119.53;;;-143.84;50.58
6032;BME280;3044;43.232;27.972;2022-10-17T02:00:10;45110.00;;;-143.84;50.63
6032;BME280;3044;43.232;27.972;2022-10-17T02:02:40;45130.94;;;-143.84;50.49
6032;BME280;3044;43.232;27.972;2022-10-17T02:05:09;45108.09;;;-143.84;50.46
6032;BME280;3044;43.232;27.972;2022-10-17T02:07:36;45129.03;;;-143.84;49.86
6032;BME280;3044;43.232;27.972;2022-10-17T02:10:04;45108.09;;;-143.84;49.82
6032;BME280;3044;43.232;27.972;2022-10-17T02:12:46;45142.38;;;-143.84;49.13
6032;BME280;3044;43.232;27.972;2022-10-17T02:15:31;45130.94;;;-143.84;49.12
6032;BME280;3044;43.232;27.972;2022-10-17T02:18:15;45132.84;;;-143.84;49.08
6032;BME280;3044;43.232;27.972;2022-10-17T02:20:50;45125.22;;;-143.84;49.20
6032;BME280;3044;43.232;27.972;2022-10-17T02:23:25;45121.44;;;-143.84;49.36
6032;BME280;3044;43.232;27.972;2022-10-17T02:26:05;45117.63;;;-143.84;49.57
6032;BME280;3044;43.232;27.972;2022-10-17T02:28:38;45125.22;;;-143.84;49.32
6032;BME280;3044;43.232;27.972;2022-10-17T02:31:13;45111.91;;;-143.84;49.70
6032;BME280;3044;43.232;27.972;2022-10-17T02:33:45;45102.38;;;-143.84;49.84
6032;BME280;3044;43.232;27.972;2022-10-17T02:36:18;45108.09;;;-143.84;49.93
6032;BME280;3044;43.232;27.972;2022-10-17T02:38:47;45125.22;;;-143.84;50.39
6032;BME280;3044;43.232;27.972;2022-10-17T02:41:17;45104.28;;;-143.84;50.87
6032;BME280;3044;43.232;27.972;2022-10-17T02:43:46;45110.00;;;-143.84;51.04
6032;BME280;3044;43.232;27.972;2022-10-17T02:46:17;45121.44;;;-143.84;51.68
6032;BME280;3044;43.232;27.972;2022-10-17T02:48:49;45123.34;;;-143.84;51.69
6032;BME280;3044;43.232;27.972;2022-10-17T02:51:24;45111.91;;;-143.84;51.72
6032;BME280;3044;43.232;27.972;2022-10-17T02:54:02;45146.19;;;-143.84;51.90
6032;BME280;3044;43.232;27.972;2022-10-17T02:56:36;45115.72;;;-143.84;52.04
6032;BME280;3044;43.232;27.972;2022-10-17T02:59:05;45123.34;;;-143.84;52.87
6032;BME280;3044;43.232;27.972;2022-10-17T03:01:34;45121.44;;;-143.84;52.92
6032;BME280;3044;43.232;27.972;2022-10-17T03:04:09;45134.75;;;-143.84;54.03
6032;BME280;3044;43.232;27.972;2022-10-17T03:06:37;45125.22;;;-143.84;54.62
6032;BME280;3044;43.232;27.972;2022-10-17T03:09:05;45115.72;;;-143.84;55.27
6032;BME280;3044;43.232;27.972;2022-10-17T03:11:33;45104.28;;;-143.84;55.74
6032;BME280;3044;43.232;27.972;2022-10-17T03:14:00;45144.28;;;-143.84;56.55
6032;BME280;3044;43.232;27.972;2022-10-17T03:16:27;45146.19;;;-143.84;56.45
6032;BME280;3044;43.232;27.972;2022-10-17T03:18:54;45136.66;;;-143.84;56.08
6032;BME280;3044;43.232;27.972;2022-10-17T03:21:23;45132.84;;;-143.84;55.85
6032;BME280;3044;43.232;27.972;2022-10-17T03:23:50;45144.28;;;-143.84;55.51
6032;BME280;3044;43.232;27.972;2022-10-17T03:26:17;45104.28;;;-143.84;54.42
6032;BME280;3044;43.232;27.972;2022-10-17T03:28:44;45100.47;;;-143.84;53.65
6032;BME280;3044;43.232;27.972;2022-10-17T03:31:14;45121.44;;;-143.84;53.22
6032;BME280;3044;43.232;27.972;2022-10-17T03:33:41;45142.38;;;-143.84;52.37
6032;BME280;3044;43.232;27.972;2022-10-17T03:36:11;45140.47;;;-143.84;52.37
6032;BME280;3044;43.232;27.972;2022-10-17T03:38:41;45130.94;;;-143.84;52.51
6032;BME280;3044;43.232;27.972;2022-10-17T03:41:08;45134.75;;;-143.84;52.26
6032;BME280;3044;43.232;27.972;2022-10-17T03:43:36;45129.03;;;-143.84;52.16
6032;BME280;3044;43.232;27.972;2022-10-17T03:46:03;45134.75;;;-143.84;52.21
6032;BME280;3044;43.232;27.972;2022-10-17T03:48:30;45127.13;;;-143.84;52.36
6032;BME280;3044;43.232;27.972;2022-10-17T03:50:58;45130.94;;;-143.84;51.96
6032;BME280;3044;43.232;27.972;2022-10-17T03:53:26;45127.13;;;-143.84;51.75
6032;BME280;3044;43.232;27.972;2022-10-17T03:55:55;45102.38;;;-143.84;51.95
6032;BME280;3044;43.232;27.972;2022-10-17T03:58:23;45140.47;;;-143.84;51.46
6032;BME280;3044;43.232;27.972;2022-10-17T04:00:50;45130.94;;;-143.84;51.76
6032;BME280;3044;43.232;27.972;2022-10-17T04:03:17;45129.03;;;-143.84;51.58
6032;BME280;3044;43.232;27.972;2022-10-17T04:05:44;45110.00;;;-143.84;51.25
6032;BME280;3044;43.232;27.972;2022-10-17T04:08:12;45127.13;;;-143.84;51.50
6032;BME280;3044;43.232;27.972;2022-10-17T04:10:39;45140.47;;;-143.84;51.87
6032;BME280;3044;43.232;27.972;2022-10-17T04:13:08;45130.94;;;-143.84;51.13
6032;BME280;3044;43.232;27.972;2022-10-17T04:15:35;45134.75;;;-143.84;52.65
6032;BME280;3044;43.232;27.972;2022-10-17T04:18:02;45136.66;;;-143.84;52.43
6032;BME280;3044;43.232;27.972;2022-10-17T04:20:29;45121.44;;;-143.84;51.45
6032;BME280;3044;43.232;27.972;2022-10-17T04:22:56;45125.22;;;-143.84;51.58
6032;BME280;3044;43.232;27.972;2022-10-17T04:25:24;45136.66;;;-143.84;52.61
6032;BME280;3044;43.232;27.972;2022-10-17T04:27:51;45113.81;;;-143.84;51.37
6032;BME280;3044;43.232;27.972;2022-10-17T04:30:19;45148.09;;;-143.84;51.51
6032;BME280;3044;43.232;27.972;2022-10-17T04:32:47;45140.47;;;-143.84;51.62
6032;BME280;3044;43.232;27.972;2022-10-17T04:35:14;45121.44;;;-143.84;52.72
6032;BME280;3044;43.232;27.972;2022-10-17T04:37:41;45127.13;;;-143.84;52.89
6032;BME280;3044;43.232;27.972;2022-10-17T04:40:09;45142.38;;;-143.84;53.05
6032;BME280;3044;43.232;27.972;2022-10-17T04:42:36;45134.75;;;-143.84;53.76
6032;BME280;3044;43.232;27.972;2022-10-17T04:45:04;45142.38;;;-143.84;54.23
6032;BME280;3044;43.232;27.972;2022-10-17T04:47:33;45144.28;;;-143.84;53.61
6032;BME280;3044;43.232;27.972;2022-10-17T04:50:00;45111.91;;;-143.84;53.26
6032;BME280;3044;43.232;27.972;2022-10-17T04:52:27;45115.72;;;-143.84;53.57
6032;BME280;3044;43.232;27.972;2022-10-17T04:54:54;45146.19;;;-143.84;54.13
6032;BME280;3044;43.232;27.972;2022-10-17T04:57:22;45142.38;;;-143.84;54.19
6032;BME280;3044;43.232;27.972;2022-10-17T04:59:49;45121.44;;;-143.84;54.41
6032;BME280;3044;43.232;27.972;2022-10-17T05:02:16;45151.91;;;-143.84;54.68
6032;BME280;3044;43.232;27.972;2022-10-17T05:04:45;45125.22;;;-143.84;55.23
6032;BME280;3044;43.232;27.972;2022-10-17T05:07:12;45108.09;;;-143.84;56.19
6032;BME280;3044;43.232;27.972;2022-10-17T05:09:39;45106.19;;;-143.84;56.96
6032;BME280;3044;43.232;27.972;2022-10-17T05:12:06;45136.66;;;-143.84;56.75
6032;BME280;3044;43.232;27.972;2022-10-17T05:14:33;45129.03;;;-143.84;56.68
6032;BME280;3044;43.232;27.972;2022-10-17T05:17:00;45129.03;;;-143.84;57.50
6032;BME280;3044;43.232;27.972;2022-10-17T05:19:27;45144.28;;;-143.84;57.25
6032;BME280;3044;43.232;27.972;2022-10-17T05:21:56;45098.56;;;-143.84;57.06
6032;BME280;3044;43.232;27.972;2022-10-17T05:24:23;45119.53;;;-143.84;57.67
6032;BME280;3044;43.232;27.972;2022-10-17T05:26:50;45096.66;;;-143.84;57.87
6032;BME280;3044;43.232;27.972;2022-10-17T05:29:18;45110.00;;;-143.84;58.46
6032;BME280;3044;43.232;27.972;2022-10-17T05:31:45;45150.00;;;-143.84;58.56
6032;BME280;3044;43.232;27.972;2022-10-17T05:34:12;45138.56;;;-143.84;58.62
6032;BME280;3044;43.232;27.972;2022-10-17T05:36:39;45121.44;;;-143.84;58.53
6032;BME280;3044;43.232;27.972;2022-10-17T05:39:08;45127.13;;;-143.84;58.47
6032;BME280;3044;43.232;27.972;2022-10-17T05:41:35;45125.22;;;-143.84;58.97
6032;BME280;3044;43.232;27.972;2022-10-17T05:44:02;45140.47;;;-143.84;59.13
6032;BME280;3044;43.232;27.972;2022-10-17T05:46:29;45127.13;;;-143.84;60.29
6032;BME280;3044;43.232;27.972;2022-10-17T05:48:56;45106.19;;;-143.84;60.91
6032;BME280;3044;43.232;27.972;2022-10-17T05:51:23;45132.84;;;-143.84;61.06
6032;BME280;3044;43.232;27.972;2022-10-17T05:53:51;45125.22;;;-143.84;61.36
6032;BME280;3044;43.232;27.972;2022-10-17T05:56:19;45129.03;;;-143.84;61.63
6032;BME280;3044;43.232;27.972;2022-10-17T05:58:46;45102.38;;;-143.84;62.01
6032;BME280;3044;43.232;27.972;2022-10-17T06:01:14;45121.44;;;-143.84;62.23
6032;BME280;3044;43.232;27.972;2022-10-17T06:03:41;45121.44;;;-143.84;61.94
6032;BME280;3044;43.232;27.972;2022-10-17T06:06:10;45125.22;;;-143.84;61.97
6032;BME280;3044;43.232;27.972;2022-10-17T06:08:38;45130.94;;;-143.84;62.90
6032;BME280;3044;43.232;27.972;2022-10-17T06:11:05;45140.47;;;-143.84;64.17
6032;BME280;3044;43.232;27.972;2022-10-17T06:13:33;45119.53;;;-143.84;64.82
6032;BME280;3044;43.232;27.972;2022-10-17T06:16:01;45094.78;;;-143.84;64.16
6032;BME280;3044;43.232;27.972;2022-10-17T06:18:28;45100.47;;;-143.84;63.71
6032;BME280;3044;43.232;27.972;2022-10-17T06:21:01;45098.56;;;-143.84;62.77
6032;BME280;3044;43.232;27.972;2022-10-17T06:23:28;45094.78;;;-143.84;61.72
6032;BME280;3044;43.232;27.972;2022-10-17T06:25:58;45100.47;;;-143.84;60.89
6032;BME280;3044;43.232;27.972;2022-10-17T06:28:25;45079.53;;;-143.84;60.50
6032;BME280;3044;43.232;27.972;2022-10-17T06:30:54;45104.28;;;-143.84;59.01
6032;BME280;3044;43.232;27.972;2022-10-17T06:33:21;45129.03;;;-143.84;58.30
6032;BME280;3044;43.232;27.972;2022-10-17T06:35:52;45092.88;;;-143.84;56.88
6032;BME280;3044;43.232;27.972;2022-10-17T06:38:20;45077.63;;;-143.84;56.59
6032;BME280;3044;43.232;27.972;2022-10-17T06:40:47;45096.66;;;-143.84;55.92
6032;BME280;3044;43.232;27.972;2022-10-17T06:43:14;45092.88;;;-143.84;54.52
6032;BME280;3044;43.232;27.972;2022-10-17T06:45:42;45102.38;;;-143.84;53.79
6032;BME280;3044;43.232;27.972;2022-10-17T06:48:12;45052.88;;;-143.84;53.21
6032;BME280;3044;43.232;27.972;2022-10-17T06:50:40;45100.47;;;-143.84;52.28
6032;BME280;3044;43.232;27.972;2022-10-17T06:53:07;45087.16;;;-143.84;51.82
6032;BME280;3044;43.232;27.972;2022-10-17T06:55:34;45071.91;;;-143.84;50.56
6032;BME280;3044;43.232;27.972;2022-10-17T06:58:01;45085.25;;;-143.84;50.26
6032;BME280;3044;43.232;27.972;2022-10-17T07:00:28;45064.31;;;-143.84;49.11
6032;BME280;3044;43.232;27.972;2022-10-17T07:02:55;45066.22;;;-143.84;48.36
6032;BME280;3044;43.232;27.972;2022-10-17T07:05:24;45066.22;;;-143.84;48.71
6032;BME280;3044;43.232;27.972;2022-10-17T07:07:51;45070.00;;;-143.84;47.66
6032;BME280;3044;43.232;27.972;2022-10-17T07:10:18;45043.34;;;-143.84;46.49
6032;BME280;3044;43.232;27.972;2022-10-17T07:12:45;45035.75;;;-143.84;46.90
6032;BME280;3044;43.232;27.972;2022-10-17T07:15:12;45089.06;;;-143.84;45.69
6032;BME280;3044;43.232;27.972;2022-10-17T07:17:39;45049.06;;;-143.84;46.25
6032;BME280;3044;43.232;27.972;2022-10-17T07:20:08;45064.31;;;-143.84;46.75
6032;BME280;3044;43.232;27.972;2022-10-17T07:22:36;45060.50;;;-143.84;45.87
6032;BME280;3044;43.232;27.972;2022-10-17T07:25:04;45047.16;;;-143.84;45.24
6032;BME280;3044;43.232;27.972;2022-10-17T07:27:32;45049.06;;;-143.84;45.14
6032;BME280;3044;43.232;27.972;2022-10-17T07:29:59;45052.88;;;-143.84;44.56
6032;BME280;3044;43.232;27.972;2022-10-17T07:32:26;45052.88;;;-143.84;44.81
6032;BME280;3044;43.232;27.972;2022-10-17T07:34:53;45054.78;;;-143.84;45.07
6032;BME280;3044;43.232;27.972;2022-10-17T07:37:20;45052.88;;;-143.84;44.84
6032;BME280;3044;43.232;27.972;2022-10-17T07:39:49;45039.53;;;-143.84;44.32
6032;BME280;3044;43.232;27.972;2022-10-17T07:42:16;45028.13;;;-143.84;44.61
6032;BME280;3044;43.232;27.972;2022-10-17T07:44:43;45047.16;;;-143.84;44.39
6032;BME280;3044;43.232;27.972;2022-10-17T07:47:12;45054.78;;;-143.84;43.33
6032;BME280;3044;43.232;27.972;2022-10-17T07:49:39;45037.66;;;-143.84;42.96
6032;BME280;3044;43.232;27.972;2022-10-17T07:52:09;45049.06;;;-143.84;42.48
6032;BME280;3044;43.232;27.972;2022-10-17T07:54:36;45030.03;;;-143.84;41.57
6032;BME280;3044;43.232;27.972;2022-10-17T07:57:05;45047.16;;;-143.84;42.11
6032;BME280;3044;43.232;27.972;2022-10-17T07:59:33;45009.09;;;-143.84;41.71
6032;BME280;3044;43.232;27.972;2022-10-17T08:02:00;45030.03;;;-143.84;42.04
6032;BME280;3044;43.232;27.972;2022-10-17T08:04:28;45039.53;;;-143.84;41.72
6032;BME280;3044;43.232;27.972;2022-10-17T08:06:55;45016.69;;;-143.84;41.03
6032;BME280;3044;43.232;27.972;2022-10-17T08:09:22;45014.78;;;-143.84;39.77
6032;BME280;3044;43.232;27.972;2022-10-17T08:11:49;45033.84;;;-143.84;39.08
6032;BME280;3044;43.232;27.972;2022-10-17T08:14:18;45014.78;;;-143.84;39.48
6032;BME280;3044;43.232;27.972;2022-10-17T08:16:45;45022.41;;;-143.84;39.60
6032;BME280;3044;43.232;27.972;2022-10-17T08:19:12;45014.78;;;-143.84;38.88
6032;BME280;3044;43.232;27.972;2022-10-17T08:21:39;45043.34;;;-143.84;39.33
6032;BME280;3044;43.232;27.972;2022-10-17T08:24:08;45012.88;;;-143.84;38.53
6032;BME280;3044;43.232;27.972;2022-10-17T08:26:35;45018.59;;;-143.84;38.46
6032;BME280;3044;43.232;27.972;2022-10-17T08:29:02;45014.78;;;-143.84;38.82
6032;BME280;3044;43.232;27.972;2022-10-17T08:31:31;45014.78;;;-143.84;38.84
6032;BME280;3044;43.232;27.972;2022-10-17T08:33:58;45037.66;;;-143.84;37.68
6032;BME280;3044;43.232;27.972;2022-10-17T08:36:25;45022.41;;;-143.84;37.65
6032;BME280;3044;43.232;27.972;2022-10-17T08:38:53;45007.19;;;-143.84;37.77
6032;BME280;3044;43.232;27.972;2022-10-17T08:41:36;45018.59;;;-143.84;37.26
6032;BME280;3044;43.232;27.972;2022-10-17T08:44:14;45014.78;;;-143.84;36.63
6032;BME280;3044;43.232;27.972;2022-10-17T08:46:51;44982.41;;;-143.84;37.33
6032;BME280;3044;43.232;27.972;2022-10-17T08:49:38;45005.28;;;-143.84;36.88
6032;BME280;3044;43.232;27.972;2022-10-17T08:52:15;44993.84;;;-143.84;37.44
6032;BME280;3044;43.232;27.972;2022-10-17T08:54:47;45018.59;;;-143.84;37.58
6032;BME280;3044;43.232;27.972;2022-10-17T08:57:16;44984.31;;;-143.84;37.00
6032;BME280;3044;43.232;27.972;2022-10-17T08:59:44;45001.47;;;-143.84;37.23
6032;BME280;3044;43.232;27.972;2022-10-17T09:02:36;45016.69;;;-143.84;36.68
6032;BME280;3044;43.232;27.972;2022-10-17T09:05:20;45007.19;;;-143.84;37.38
6032;BME280;3044;43.232;27.972;2022-10-17T09:07:57;45018.59;;;-143.84;37.16
6032;BME280;3044;43.232;27.972;2022-10-17T09:10:32;44991.94;;;-143.84;36.36
6032;BME280;3044;43.232;27.972;2022-10-17T09:13:09;44997.66;;;-143.84;36.97
6032;BME280;3044;43.232;27.972;2022-10-17T09:15:53;45005.28;;;-143.84;36.64
6032;BME280;3044;43.232;27.972;2022-10-17T09:18:26;45026.22;;;-143.84;36.90
6032;BME280;3044;43.232;27.972;2022-10-17T09:21:00;45012.88;;;-143.84;36.81
6032;BME280;3044;43.232;27.972;2022-10-17T09:23:35;45018.59;;;-143.84;37.39
6032;BME280;3044;43.232;27.972;2022-10-17T09:26:03;45014.78;;;-143.84;36.10
6032;BME280;3044;43.232;27.972;2022-10-17T09:28:33;45030.03;;;-143.84;35.89
6032;BME280;3044;43.232;27.972;2022-10-17T09:31:04;45012.88;;;-143.84;36.76
6032;BME280;3044;43.232;27.972;2022-10-17T09:33:36;44993.84;;;-143.84;35.41
6032;BME280;3044;43.232;27.972;2022-10-17T09:36:07;44999.56;;;-143.84;35.89
6032;BME280;3044;43.232;27.972;2022-10-17T09:38:38;45016.69;;;-143.84;36.31
6032;BME280;3044;43.232;27.972;2022-10-17T09:41:15;45001.47;;;-143.84;36.27
6032;BME280;3044;43.232;27.972;2022-10-17T09:43:44;45031.94;;;-143.84;35.67
6032;BME280;3044;43.232;27.972;2022-10-17T09:46:16;44986.22;;;-143.84;35.88
6032;BME280;3044;43.232;27.972;2022-10-17T09:48:48;45018.59;;;-143.84;35.59
6032;BME280;3044;43.232;27.972;2022-10-17T09:51:17;45022.41;;;-143.84;36.48
6032;BME280;3044;43.232;27.972;2022-10-17T09:53:47;44984.31;;;-143.84;36.31
6032;BME280;3044;43.232;27.972;2022-10-17T09:56:17;45018.59;;;-143.84;36.46
6032;BME280;3044;43.232;27.972;2022-10-17T09:58:47;45010.97;;;-143.84;35.56
6032;BME280;3044;43.232;27.972;2022-10-17T10:01:17;45009.09;;;-143.84;37.04
6032;BME280;3044;43.232;27.972;2022-10-17T10:03:46;44999.56;;;-143.84;36.53
6032;BME280;3044;43.232;27.972;2022-10-17T10:06:16;44995.75;;;-143.84;36.26
6032;BME280;3044;43.232;27.972;2022-10-17T10:08:49;45014.78;;;-143.84;35.53
6032;BME280;3044;43.232;27.972;2022-10-17T10:11:18;45018.59;;;-143.84;35.85
6032;BME280;3044;43.232;27.972;2022-10-17T10:13:48;45012.88;;;-143.84;35.86
6032;BME280;3044;43.232;27.972;2022-10-17T10:16:21;44972.91;;;-143.84;35.90
6032;BME280;3044;43.232;27.972;2022-10-17T10:18:51;45016.69;;;-143.84;35.96
6032;BME280;3044;43.232;27.972;2022-10-17T10:21:19;45030.03;;;-143.84;35.78
6032;BME280;3044;43.232;27.972;2022-10-17T10:24:03;44999.56;;;-143.84;35.85
6032;BME280;3044;43.232;27.972;2022-10-17T10:26:35;45026.22;;;-143.84;36.00
6032;BME280;3044;43.232;27.972;2022-10-17T10:29:06;45005.28;;;-143.84;35.94
6032;BME280;3044;43.232;27.972;2022-10-17T10:31:45;45028.13;;;-143.84;36.22
6032;BME280;3044;43.232;27.972;2022-10-17T10:34:21;45022.41;;;-143.84;36.55
6032;BME280;3044;43.232;27.972;2022-10-17T10:36:55;45003.38;;;-143.84;36.90
6032;BME280;3044;43.232;27.972;2022-10-17T10:39:31;45052.88;;;-143.84;37.31
6032;BME280;3044;43.232;27.972;2022-10-17T10:42:01;45005.28;;;-143.84;37.50
6032;BME280;3044;43.232;27.972;2022-10-17T10:44:31;45030.03;;;-143.84;37.48
6032;BME280;3044;43.232;27.972;2022-10-17T10:47:06;45005.28;;;-143.84;36.74
6032;BME280;3044;43.232;27.972;2022-10-17T10:49:37;45003.38;;;-143.84;37.60
6032;BME280;3044;43.232;27.972;2022-10-17T10:52:05;44999.56;;;-143.84;37.81
6032;BME280;3044;43.232;27.972;2022-10-17T10:54:40;45009.09;;;-143.84;38.06
6032;BME280;3044;43.232;27.972;2022-10-17T10:57:12;45031.94;;;-143.84;38.24
6032;BME280;3044;43.232;27.972;2022-10-17T10:59:50;45039.53;;;-143.84;38.49
6032;BME280;3044;43.232;27.972;2022-10-17T11:02:25;45014.78;;;-143.84;38.49
6032;BME280;3044;43.232;27.972;2022-10-17T11:04:57;45031.94;;;-143.84;38.38
6032;BME280;3044;43.232;27.972;2022-10-17T11:07:30;45033.84;;;-143.84;38.81
6032;BME280;3044;43.232;27.972;2022-10-17T11:10:04;45012.88;;;-143.84;38.97
6032;BME280;3044;43.232;27.972;2022-10-17T11:12:38;45033.84;;;-143.84;39.56
6032;BME280;3044;43.232;27.972;2022-10-17T11:15:17;45054.78;;;-143.84;39.63
6032;BME280;3044;43.232;27.972;2022-10-17T11:17:52;44999.56;;;-143.84;40.15
6032;BME280;3044;43.232;27.972;2022-10-17T11:20:29;44997.66;;;-143.84;40.20
6032;BME280;3044;43.232;27.972;2022-10-17T11:23:08;45020.50;;;-143.84;39.91
6032;BME280;3044;43.232;27.972;2022-10-17T11:25:37;45022.41;;;-143.84;38.76
6032;BME280;3044;43.232;27.972;2022-10-17T11:28:12;45012.88;;;-143.84;39.37
6032;BME280;3044;43.232;27.972;2022-10-17T11:30:45;45031.94;;;-143.84;39.34
6032;BME280;3044;43.232;27.972;2022-10-17T11:33:18;45022.41;;;-143.84;39.67
6032;BME280;3044;43.232;27.972;2022-10-17T11:35:50;45010.97;;;-143.84;39.82
6032;BME280;3044;43.232;27.972;2022-10-17T11:38:21;45031.94;;;-143.84;39.89
6032;BME280;3044;43.232;27.972;2022-10-17T11:40:55;45037.66;;;-143.84;39.35
6032;BME280;3044;43.232;27.972;2022-10-17T11:43:28;45037.66;;;-143.84;39.20
6032;BME280;3044;43.232;27.972;2022-10-17T11:46:00;45014.78;;;-143.84;39.26
6032;BME280;3044;43.232;27.972;2022-10-17T11:48:30;45012.88;;;-143.84;40.59
6032;BME280;3044;43.232;27.972;2022-10-17T11:51:07;45037.66;;;-143.84;39.89
6032;BME280;3044;43.232;27.972;2022-10-17T11:53:46;45012.88;;;-143.84;40.77
6032;BME280;3044;43.232;27.972;2022-10-17T11:56:19;45033.84;;;-143.84;40.55
6032;BME280;3044;43.232;27.972;2022-10-17T11:58:52;45026.22;;;-143.84;40.46
6032;BME280;3044;43.232;27.972;2022-10-17T12:01:26;45039.53;;;-143.84;40.91
6032;BME280;3044;43.232;27.972;2022-10-17T12:04:20;45010.97;;;-143.84;41.58
6032;BME280;3044;43.232;27.972;2022-10-17T12:07:01;45045.25;;;-143.84;41.07
6032;BME280;3044;43.232;27.972;2022-10-17T12:09:37;45033.84;;;-143.84;41.31
6032;BME280;3044;43.232;27.972;2022-10-17T12:12:08;45045.25;;;-143.84;41.00
6032;BME280;3044;43.232;27.972;2022-10-17T12:14:42;45022.41;;;-143.84;40.55
6032;BME280;3044;43.232;27.972;2022-10-17T12:17:28;45050.97;;;-143.84;41.60
6032;BME280;3044;43.232;27.972;2022-10-17T12:20:16;45039.53;;;-143.84;42.17
6032;BME280;3044;43.232;27.972;2022-10-17T12:22:52;45028.13;;;-143.84;41.22
6032;BME280;3044;43.232;27.972;2022-10-17T12:25:22;45039.53;;;-143.84;40.76
6032;BME280;3044;43.232;27.972;2022-10-17T12:28:04;45007.19;;;-143.84;41.96
6032;BME280;3044;43.232;27.972;2022-10-17T12:30:49;45045.25;;;-143.84;42.09
6032;BME280;3044;43.232;27.972;2022-10-17T12:33:18;45035.75;;;-143.84;42.71
6032;BME280;3044;43.232;27.972;2022-10-17T12:35:48;45030.03;;;-143.84;43.50
6032;BME280;3044;43.232;27.972;2022-10-17T12:38:23;45052.88;;;-143.84;42.91
6032;BME280;3044;43.232;27.972;2022-10-17T12:40:56;45077.63;;;-143.84;42.69
6032;BME280;3044;43.232;27.972;2022-10-17T12:43:48;45028.13;;;-143.84;41.70
6032;BME280;3044;43.232;27.972;2022-10-17T12:46:40;45030.03;;;-143.84;43.02
6032;BME280;3044;43.232;27.972;2022-10-17T12:49:23;45035.75;;;-143.84;43.25
6032;BME280;3044;43.232;27.972;2022-10-17T12:55:06;45028.13;;;-143.84;44.45
6032;BME280;3044;43.232;27.972;2022-10-17T12:57:47;45030.03;;;-143.84;45.48
6032;BME280;3044;43.232;27.972;2022-10-17T13:00:19;45062.41;;;-143.84;45.81
6032;BME280;3044;43.232;27.972;2022-10-17T13:02:49;45062.41;;;-143.84;45.44
6032;BME280;3044;43.232;27.972;2022-10-17T13:05:25;45058.59;;;-143.84;45.77
6032;BME280;3044;43.232;27.972;2022-10-17T13:07:54;45047.16;;;-143.84;46.16
6032;BME280;3044;43.232;27.972;2022-10-17T13:10:27;45054.78;;;-143.84;46.39
6032;BME280;3044;43.232;27.972;2022-10-17T13:13:03;45054.78;;;-143.84;46.13
6032;BME280;3044;43.232;27.972;2022-10-17T13:15:30;45028.13;;;-143.84;45.28